Time;durP1;ratioP1;P1;durP2;ratioP2;P2;SDS_P1;SDS_P2;PMS_P1;PMS_P2;Temp;Humidity;BMP_temperature;BMP_pressure;BME280_temperature;BME280_humidity;BME280_pressure;Samples;Min_cycle;Max_cycle;Signal;HPM_P1;HPM_P2
2021/10/02 00:46:36;;;;;;;18.40;6.60;;;;;;;8.44;53.30;100798.57;27266;1218;3051703;-70
2021/10/02 00:49:05;;;;;;;23.70;8.00;;;;;;;8.38;53.83;100798.89;27262;1219;3026125;-71
2021/10/02 00:51:33;;;;;;;20.80;8.00;;;;;;;8.36;53.85;100800.73;27202;1219;3055296;-70
2021/10/02 00:54:02;;;;;;;21.40;7.10;;;;;;;8.36;53.71;100800.20;27207;1219;3028115;-71
2021/10/02 00:56:31;;;;;;;20.70;7.20;;;;;;;8.35;53.42;100801.45;27196;1219;3051739;-70
2021/10/02 00:59:00;;;;;;;16.60;7.30;;;;;;;8.33;53.54;100797.67;27236;1218;3027380;-73
2021/10/02 01:01:54;;;;;;;18.80;8.10;;;;;;;8.31;53.66;100797.55;27258;1219;3054162;-68
2021/10/02 01:04:30;;;;;;;16.80;7.50;;;;;;;8.26;53.95;100796.81;27247;1218;3052120;-68
2021/10/02 01:07:22;;;;;;;16.40;7.10;;;;;;;8.22;54.06;100798.68;27223;1219;3057556;-72
2021/10/02 01:09:56;;;;;;;18.20;6.70;;;;;;;8.21;54.13;100799.23;27227;1219;3049650;-71
2021/10/02 01:12:47;;;;;;;15.70;7.50;;;;;;;8.21;54.15;100799.93;27238;1219;3055660;-70
2021/10/02 01:15:29;;;;;;;19.10;7.00;;;;;;;8.19;54.39;100798.23;27220;1218;3054322;-71
2021/10/02 01:18:33;;;;;;;15.90;7.50;;;;;;;8.19;54.09;100800.01;27241;1218;3070886;-70
2021/10/02 01:21:37;;;;;;;12.90;6.50;;;;;;;8.21;53.92;100797.64;27246;1219;3048482;-69
2021/10/02 01:24:31;;;;;;;15.80;6.80;;;;;;;8.26;53.61;100797.85;27200;1218;3054957;-71
2021/10/02 01:27:25;;;;;;;19.30;7.00;;;;;;;8.27;53.75;100799.23;27204;1218;3054969;-71
2021/10/02 01:29:54;;;;;;;16.20;8.10;;;;;;;8.26;53.73;100798.23;27202;1219;3055813;-70
2021/10/02 01:32:31;;;;;;;17.40;8.00;;;;;;;8.23;54.23;100802.67;27226;1219;3025956;-70
2021/10/02 01:35:08;;;;;;;21.10;8.60;;;;;;;8.16;55.14;100800.27;27227;1219;3056270;-71
2021/10/02 01:48:48;;;;;;;17.00;9.10;;;;;;;7.78;56.34;100802.04;27215;1218;3070520;-71
2021/10/02 01:51:17;;;;;;;20.70;9.60;;;;;;;7.74;56.70;100802.16;27258;1218;3026755;-71
2021/10/02 01:53:46;;;;;;;24.70;9.30;;;;;;;7.69;56.52;100806.27;27211;1219;3052842;-71
2021/10/02 01:56:17;;;;;;;18.30;9.20;;;;;;;7.69;56.49;100799.31;27233;1219;3028373;-71
2021/10/02 01:58:47;;;;;;;20.20;9.00;;;;;;;7.68;56.34;100800.55;27244;1218;3052425;-71
2021/10/02 02:01:16;;;;;;;17.70;9.00;;;;;;;7.68;56.43;100802.85;27229;1219;3026510;-72
2021/10/02 02:03:45;;;;;;;24.10;10.00;;;;;;;7.61;56.91;100806.00;27231;1212;3026149;-70
2021/10/02 02:06:15;;;;;;;22.80;8.80;;;;;;;7.55;56.88;100803.70;27253;1219;3054740;-71
2021/10/02 02:08:44;;;;;;;20.00;8.40;;;;;;;7.48;57.12;100805.64;27227;1219;3026650;-73
2021/10/02 02:11:14;;;;;;;18.90;8.70;;;;;;;7.42;57.30;100806.14;27258;1218;3026172;-72
2021/10/02 02:13:48;;;;;;;19.10;8.10;;;;;;;7.35;57.64;100801.98;27311;1218;3048262;-69
2021/10/02 02:16:17;;;;;;;15.40;8.40;;;;;;;7.33;57.36;100808.11;27312;1219;3026156;-71
2021/10/02 02:18:47;;;;;;;20.50;8.10;;;;;;;7.29;57.60;100806.64;27286;1218;3070195;-69
2021/10/02 02:21:16;;;;;;;16.40;8.70;;;;;;;7.27;57.81;100808.95;27335;1217;3026372;-70
2021/10/02 02:23:45;;;;;;;17.40;8.10;;;;;;;7.22;58.01;100809.43;27294;1219;3027335;-72
2021/10/02 02:26:14;;;;;;;22.10;9.40;;;;;;;7.18;58.17;100808.48;27267;1217;3067957;-73
2021/10/02 02:28:43;;;;;;;17.90;8.60;;;;;;;7.18;58.08;100807.61;27247;1217;3029231;-72
2021/10/02 02:31:12;;;;;;;18.30;8.70;;;;;;;7.17;57.74;100815.48;27227;1218;3053178;-72
2021/10/02 02:33:43;;;;;;;15.00;8.00;;;;;;;7.09;57.79;100816.73;27220;1218;3028222;-72
2021/10/02 02:36:11;;;;;;;17.30;9.10;;;;;;;7.04;58.10;100816.67;27256;1218;3026538;-71
2021/10/02 02:38:41;;;;;;;18.20;8.50;;;;;;;7.06;58.07;100822.20;27256;1218;3052829;-71
2021/10/02 02:41:10;;;;;;;19.00;8.20;;;;;;;7.03;58.12;100822.11;27193;1202;3027889;-71
2021/10/02 02:43:39;;;;;;;21.00;9.00;;;;;;;7.00;57.96;100820.42;27228;1217;3052484;-73
2021/10/02 02:46:11;;;;;;;20.60;9.70;;;;;;;6.96;58.12;100820.88;27252;1218;3026962;-72
2021/10/02 02:48:53;;;;;;;15.60;8.20;;;;;;;6.95;58.00;100823.16;27234;1218;3026445;-70
2021/10/02 02:51:26;;;;;;;16.60;7.50;;;;;;;6.90;57.92;100825.02;27279;1218;3049093;-71
2021/10/02 02:54:02;;;;;;;;;;;;;;;6.91;57.66;100826.05;27219;1217;3054975;-71
2021/10/02 02:56:51;;;;;;;16.30;7.40;;;;;;;6.82;58.48;100822.95;27264;1218;3054380;-71
2021/10/02 02:59:31;;;;;;;15.80;7.20;;;;;;;6.80;58.57;100826.48;27240;1218;3058728;-70
2021/10/02 03:02:04;;;;;;;15.70;7.80;;;;;;;6.82;58.08;100824.86;27208;1217;3051805;-73
2021/10/02 03:04:37;;;;;;;12.10;6.50;;;;;;;6.85;57.67;100825.64;27200;1218;3055142;-73
2021/10/02 03:07:07;;;;;;;20.60;7.50;;;;;;;6.86;57.77;100820.59;27225;1219;3026615;-70
2021/10/02 03:09:39;;;;;;;15.70;7.30;;;;;;;6.85;57.70;100821.86;27212;1218;3049622;-71
2021/10/02 03:12:08;;;;;;;16.80;6.70;;;;;;;6.85;57.61;100817.81;27263;1218;3026345;-71
2021/10/02 03:14:38;;;;;;;14.20;6.60;;;;;;;6.84;57.74;100817.85;27215;1218;3026190;-70
2021/10/02 03:17:08;;;;;;;18.10;6.80;;;;;;;6.89;57.29;100819.14;27210;1218;3027000;-71
2021/10/02 03:19:58;;;;;;;15.70;6.50;;;;;;;6.88;57.21;100822.09;27183;1219;3052507;-73
2021/10/02 03:22:28;;;;;;;14.80;6.50;;;;;;;6.89;57.30;100823.14;27261;1210;3025985;-70
2021/10/02 03:24:57;;;;;;;13.20;6.50;;;;;;;6.88;57.42;100826.10;27235;1218;3026050;-73
2021/10/02 03:27:27;;;;;;;15.90;6.40;;;;;;;6.91;56.98;100824.81;27285;1218;3026513;-73
2021/10/02 03:29:56;;;;;;;15.40;6.10;;;;;;;6.93;57.35;100826.18;27225;1217;3052986;-73
2021/10/02 03:32:27;;;;;;;14.50;6.90;;;;;;;6.92;57.13;100825.14;27225;1218;3028225;-71
2021/10/02 03:34:59;;;;;;;14.00;6.60;;;;;;;6.90;57.42;100824.49;27207;1218;3026210;-71
2021/10/02 03:37:28;;;;;;;21.70;8.00;;;;;;;6.89;57.55;100825.92;27208;1217;3026153;-71
2021/10/02 03:39:57;;;;;;;12.00;6.40;;;;;;;6.82;57.53;100829.38;27254;1218;3027943;-70
2021/10/02 03:42:26;;;;;;;16.40;6.50;;;;;;;6.78;58.12;100831.05;27235;1218;3026068;-71
2021/10/02 03:44:57;;;;;;;14.80;6.70;;;;;;;6.72;57.98;100827.01;27225;1218;3052380;-69
2021/10/02 03:47:26;;;;;;;16.90;6.50;;;;;;;6.71;57.81;100821.80;27219;1218;3026212;-71
2021/10/02 03:49:55;;;;;;;24.80;6.20;;;;;;;6.69;57.90;100824.65;27208;1218;3058828;-74
2021/10/02 03:52:24;;;;;;;11.30;6.00;;;;;;;6.65;57.87;100822.11;27243;1218;3026291;-73
2021/10/02 03:55:00;;;;;;;11.70;5.10;;;;;;;6.67;58.00;100822.60;27213;1218;3054208;-71
2021/10/02 03:57:30;;;;;;;10.40;5.80;;;;;;;6.66;57.95;100825.06;27222;1218;3030204;-71
2021/10/02 04:00:00;;;;;;;14.50;6.00;;;;;;;6.68;57.68;100822.41;27211;1218;3052571;-72
2021/10/02 04:02:29;;;;;;;14.50;6.00;;;;;;;6.74;57.25;100827.15;27254;1218;3025873;-69
2021/10/02 04:04:58;;;;;;;13.50;6.20;;;;;;;6.78;57.30;100833.48;27238;1218;3026968;-71
2021/10/02 04:07:27;;;;;;;14.20;6.20;;;;;;;6.82;57.05;100830.10;27239;1218;3051774;-72
2021/10/02 04:09:56;;;;;;;14.10;6.10;;;;;;;6.83;56.99;100830.23;27255;1218;3028277;-72
2021/10/02 04:12:26;;;;;;;14.20;6.10;;;;;;;6.86;56.88;100828.95;27225;1218;3050971;-71
2021/10/02 04:14:54;;;;;;;11.30;5.80;;;;;;;6.89;57.02;100836.54;27227;1218;3025903;-72
2021/10/02 04:17:24;;;;;;;13.40;6.00;;;;;;;6.92;57.03;100840.48;27203;1218;3068355;-71
2021/10/02 04:19:55;;;;;;;13.70;6.70;;;;;;;6.94;56.96;100842.70;27231;1219;3026528;-73
2021/10/02 04:22:44;;;;;;;14.30;6.20;;;;;;;6.94;57.21;100847.75;27238;1218;3054867;-72
2021/10/02 04:25:14;;;;;;;13.00;5.80;;;;;;;6.96;56.76;100844.56;27212;1217;3026492;-72
2021/10/02 04:27:43;;;;;;;11.40;5.70;;;;;;;6.95;56.89;100842.33;27225;1218;3050763;-72
2021/10/02 04:30:12;;;;;;;11.50;5.70;;;;;;;6.99;56.89;100839.44;27234;1218;3028837;-73
2021/10/02 04:32:41;;;;;;;11.70;5.80;;;;;;;7.02;56.73;100835.36;27242;1218;3070351;-70
2021/10/02 04:35:10;;;;;;;14.00;5.60;;;;;;;7.06;56.76;100837.36;27233;1217;3026615;-73
2021/10/02 04:37:39;;;;;;;9.10;5.60;;;;;;;7.08;56.60;100834.02;27231;1210;3026953;-72
2021/10/02 04:40:10;;;;;;;14.60;6.30;;;;;;;7.14;56.62;100832.10;27221;1218;3070133;-70
2021/10/02 04:42:38;;;;;;;15.50;5.40;;;;;;;7.18;56.37;100833.59;27217;1218;3027658;-70
2021/10/02 04:45:08;;;;;;;14.20;6.30;;;;;;;7.24;56.26;100833.95;27226;1218;3026305;-71
2021/10/02 04:47:37;;;;;;;9.40;5.30;;;;;;;7.24;56.28;100835.19;27241;1217;3069903;-70
2021/10/02 04:50:07;;;;;;;12.50;5.80;;;;;;;7.23;56.19;100835.55;27249;1218;3026209;-72
2021/10/02 04:52:38;;;;;;;12.00;6.00;;;;;;;7.28;56.09;100833.51;27220;1218;3050472;-73
2021/10/02 04:55:08;;;;;;;9.90;4.60;;;;;;;7.37;55.51;100832.42;27235;1218;3026901;-71
2021/10/02 04:57:48;;;;;;;12.30;5.00;;;;;;;7.39;55.39;100833.41;27193;1218;3051266;-70
2021/10/02 05:00:17;;;;;;;10.30;5.50;;;;;;;7.50;55.15;100837.30;27280;1217;3028852;-72
2021/10/02 05:02:46;;;;;;;8.80;5.00;;;;;;;7.57;54.86;100834.50;27215;1218;3067498;-72
2021/10/02 05:05:15;;;;;;;9.00;5.30;;;;;;;7.59;54.57;100836.55;27242;1218;3027318;-70
2021/10/02 05:07:44;;;;;;;10.30;4.80;;;;;;;7.61;54.63;100842.59;27238;1218;3053267;-71
2021/10/02 05:10:14;;;;;;;10.90;4.80;;;;;;;7.66;54.45;100835.50;27204;1218;3027019;-70
2021/10/02 05:12:50;;;;;;;15.30;5.70;;;;;;;7.70;54.49;100836.08;27245;1218;3051406;-71
2021/10/02 05:15:25;;;;;;;10.40;4.70;;;;;;;7.78;54.32;100840.61;27245;1218;3054476;-71
2021/10/02 05:17:55;;;;;;;13.50;5.60;;;;;;;7.83;54.12;100840.27;27201;1217;3026197;-70
2021/10/02 05:20:24;;;;;;;8.80;5.10;;;;;;;7.84;54.06;100839.89;27214;1218;3026367;-69
2021/10/02 05:22:53;;;;;;;12.20;5.70;;;;;;;7.86;53.93;100840.20;27213;1217;3026877;-71
2021/10/02 05:25:22;;;;;;;14.20;5.30;;;;;;;7.87;53.81;100840.34;27217;1217;3026082;-71
2021/10/02 05:27:51;;;;;;;13.60;6.50;;;;;;;7.92;53.75;100834.96;27251;1218;3055389;-72
2021/10/02 05:30:20;;;;;;;12.20;5.40;;;;;;;7.92;53.86;100837.58;27256;1218;3026423;-72
2021/10/02 05:32:49;;;;;;;12.70;5.90;;;;;;;7.92;53.85;100832.02;27237;1218;3052504;-66
2021/10/02 05:35:18;;;;;;;12.30;5.90;;;;;;;7.97;54.13;100830.98;27265;1209;3025855;-72
2021/10/02 05:37:47;;;;;;;8.60;5.40;;;;;;;8.07;53.62;100829.14;27251;1218;3053525;-72
2021/10/02 05:40:16;;;;;;;11.00;5.70;;;;;;;8.12;53.49;100825.34;27237;1218;3027990;-73
2021/10/02 05:42:47;;;;;;;9.60;5.10;;;;;;;8.17;53.69;100827.45;27214;1218;3047950;-74
2021/10/02 05:45:15;;;;;;;11.40;5.30;;;;;;;8.25;53.88;100832.82;27229;1218;3027299;-75
2021/10/02 05:47:45;;;;;;;10.30;5.20;;;;;;;8.27;53.81;100829.98;27204;1218;3026084;-73
2021/10/02 05:50:14;;;;;;;11.00;5.30;;;;;;;8.32;54.15;100834.69;27255;1218;3026733;-72
2021/10/02 05:52:43;;;;;;;10.20;5.50;;;;;;;8.38;54.10;100828.75;27222;1217;3051582;-70
2021/10/02 05:55:13;;;;;;;13.40;5.60;;;;;;;8.37;54.18;100834.17;27197;1218;3025991;-70
2021/10/02 05:57:41;;;;;;;12.40;5.60;;;;;;;8.44;54.33;100833.48;27182;1218;3026752;-73
2021/10/02 06:00:11;;;;;;;10.20;5.20;;;;;;;8.50;53.93;100831.06;27263;1217;3050801;-73
2021/10/02 06:02:43;;;;;;;24.50;5.70;;;;;;;8.60;53.93;100828.83;27211;1218;3027210;-71
2021/10/02 06:05:12;;;;;;;11.10;5.30;;;;;;;8.67;53.69;100825.65;27261;1218;3026516;-71
2021/10/02 06:07:42;;;;;;;9.80;5.10;;;;;;;8.76;53.34;100823.46;27223;1218;3054600;-71
2021/10/02 06:10:12;;;;;;;12.30;5.80;;;;;;;8.80;53.29;100824.73;27232;1218;3026444;-70
2021/10/02 06:12:41;;;;;;;8.50;5.00;;;;;;;8.87;52.97;100828.88;27196;1218;3026745;-71
2021/10/02 06:15:10;;;;;;;12.60;6.40;;;;;;;8.90;53.13;100832.80;27221;1218;3026139;-72
2021/10/02 06:17:39;;;;;;;9.60;5.10;;;;;;;8.99;52.78;100828.13;27275;1218;3051157;-72
2021/10/02 06:20:08;;;;;;;11.10;5.50;;;;;;;9.06;52.77;100828.61;27229;1218;3026084;-72
2021/10/02 06:22:37;;;;;;;11.50;5.00;;;;;;;9.17;52.38;100830.36;27246;1218;3051251;-70
2021/10/02 06:25:07;;;;;;;11.00;4.70;;;;;;;9.30;51.99;100827.13;27229;1218;3026471;-71
2021/10/02 06:27:39;;;;;;;10.20;5.40;;;;;;;9.38;51.65;100828.60;27210;1218;3048103;-70
2021/10/02 06:30:09;;;;;;;10.80;5.00;;;;;;;9.47;51.73;100831.11;27268;1217;3025782;-71
2021/10/02 06:32:39;;;;;;;9.70;4.30;;;;;;;9.56;51.41;100828.15;27205;1218;3070569;-70
2021/10/02 06:35:08;;;;;;;10.50;4.90;;;;;;;9.65;51.37;100830.82;27203;1218;3029523;-68
2021/10/02 06:37:38;;;;;;;15.80;5.10;;;;;;;9.72;51.19;100823.61;27230;1218;3052747;-70
2021/10/02 06:40:07;;;;;;;11.80;5.00;;;;;;;9.85;51.16;100824.90;27201;1218;3025719;-73
2021/10/02 06:42:37;;;;;;;7.80;4.50;;;;;;;9.96;50.83;100821.16;27187;1218;3026135;-68
2021/10/02 06:45:07;;;;;;;15.30;4.70;;;;;;;10.07;50.68;100813.73;27229;1218;3026045;-70
2021/10/02 06:47:37;;;;;;;9.60;3.70;;;;;;;10.16;49.91;100814.98;27214;1217;3068080;-71
2021/10/02 06:50:06;;;;;;;8.30;4.20;;;;;;;10.27;49.12;100811.41;27208;1218;3026548;-72
2021/10/02 06:52:36;;;;;;;10.70;4.30;;;;;;;10.38;48.53;100809.64;27199;1218;3053147;-71
2021/10/02 06:55:07;;;;;;;6.50;3.80;;;;;;;10.48;48.28;100808.92;27202;1217;3028911;-69
2021/10/02 06:57:36;;;;;;;8.30;4.00;;;;;;;10.56;47.72;100807.00;27252;1218;3051629;-70
2021/10/02 07:00:06;;;;;;;8.60;4.10;;;;;;;10.68;47.89;100811.63;27272;1210;3025958;-73
2021/10/02 07:02:41;;;;;;;7.60;4.00;;;;;;;10.78;47.63;100808.60;27210;1217;3027418;-71
2021/10/02 07:05:11;;;;;;;12.10;3.50;;;;;;;10.89;47.21;100807.13;27230;1218;3026653;-71
2021/10/02 07:07:40;;;;;;;6.80;3.50;;;;;;;10.98;46.71;100807.65;27260;1218;3026453;-69
2021/10/02 07:10:10;;;;;;;11.60;3.50;;;;;;;11.07;46.23;100800.56;27243;1218;3026529;-72
2021/10/02 07:12:47;;;;;;;8.20;3.60;;;;;;;11.13;45.04;100796.33;27269;1218;3058100;-71
2021/10/02 07:15:18;;;;;;;10.30;3.10;;;;;;;11.20;43.32;100794.77;27210;1218;3026586;-70
2021/10/02 07:17:47;;;;;;;8.60;3.10;;;;;;;11.23;41.60;100790.99;27284;1210;3025829;-70
2021/10/02 07:20:17;;;;;;;7.20;2.70;;;;;;;11.23;41.24;100791.14;27232;1218;3026486;-69
2021/10/02 07:23:06;;;;;;;14.30;3.00;;;;;;;11.40;41.22;100792.20;27207;1218;3071113;-71
2021/10/02 07:25:35;;;;;;;9.70;2.80;;;;;;;11.50;41.26;100788.11;27196;1218;3026093;-69
2021/10/02 07:28:05;;;;;;;7.10;3.00;;;;;;;11.65;41.22;100786.02;27205;1218;3026011;-71
2021/10/02 07:30:34;;;;;;;4.80;2.90;;;;;;;11.78;40.65;100778.79;27226;1218;3026071;-70
2021/10/02 07:33:03;;;;;;;7.40;3.50;;;;;;;11.85;40.62;100773.89;27228;1217;3028147;-70
2021/10/02 07:35:32;;;;;;;5.00;2.70;;;;;;;11.92;40.22;100770.27;27255;1219;3051567;-68
2021/10/02 07:38:01;;;;;;;9.00;3.20;;;;;;;11.97;39.61;100766.04;27227;1218;3026325;-68
2021/10/02 07:40:31;;;;;;;7.30;2.80;;;;;;;12.02;40.01;100766.14;27242;1218;3047881;-69
2021/10/02 07:43:01;;;;;;;8.40;2.80;;;;;;;12.12;39.60;100761.13;27216;1218;3026269;-71
2021/10/02 07:45:30;;;;;;;5.60;2.60;;;;;;;12.19;38.31;100758.14;27209;1218;3027312;-70
2021/10/02 07:48:02;;;;;;;12.20;2.20;;;;;;;12.35;37.95;100756.70;27213;1219;3026068;-69
2021/10/02 07:50:31;;;;;;;6.80;2.60;;;;;;;12.44;37.31;100753.28;27200;1218;3026831;-69
2021/10/02 07:53:00;;;;;;;8.00;1.80;;;;;;;12.50;36.81;100753.03;27228;1218;3028709;-71
2021/10/02 07:55:29;;;;;;;5.60;2.10;;;;;;;12.54;36.25;100747.92;27219;1219;3056024;-69
2021/10/02 07:57:58;;;;;;;8.30;2.30;;;;;;;12.64;36.81;100750.79;27214;1218;3026059;-71
2021/10/02 08:00:27;;;;;;;10.20;2.30;;;;;;;12.66;36.11;100748.92;27201;1210;3055897;-71
2021/10/02 08:02:56;;;;;;;7.00;2.20;;;;;;;12.67;35.67;100749.39;27256;1218;3026248;-67
2021/10/02 08:05:25;;;;;;;3.30;1.90;;;;;;;12.79;34.99;100749.69;27252;1218;3053177;-68
2021/10/02 08:07:54;;;;;;;4.60;2.30;;;;;;;12.89;34.61;100749.70;27225;1217;3026109;-70
2021/10/02 08:10:28;;;;;;;4.70;2.50;;;;;;;12.94;34.72;100750.19;27228;1218;3051169;-69
2021/10/02 08:13:01;;;;;;;6.10;2.10;;;;;;;13.01;34.29;100749.50;27219;1217;3055070;-70
2021/10/02 08:15:58;;;;;;;6.30;2.20;;;;;;;13.01;34.62;100749.81;27246;1218;3052165;-70
2021/10/02 08:18:34;;;;;;;12.40;2.50;;;;;;;13.11;34.60;100748.25;27238;1218;3055550;-72
2021/10/02 08:21:23;;;;;;;4.30;2.70;;;;;;;13.17;34.16;100749.54;27234;1218;3049438;-70
2021/10/02 08:23:52;;;;;;;6.00;2.50;;;;;;;13.22;34.13;100743.63;27228;1218;3028064;-70
2021/10/02 08:26:22;;;;;;;6.60;2.90;;;;;;;13.23;34.15;100744.29;27261;1218;3058813;-71
2021/10/02 08:28:52;;;;;;;4.40;2.40;;;;;;;13.27;34.50;100742.34;27248;1218;3027205;-65
2021/10/02 08:31:23;;;;;;;9.10;2.60;;;;;;;13.34;34.61;100744.47;27235;1218;3051813;-67
2021/10/02 08:34:11;;;;;;;4.60;2.50;;;;;;;13.44;34.80;100741.14;27237;1218;3058804;-69
2021/10/02 08:36:40;;;;;;;6.40;2.70;;;;;;;13.46;34.90;100739.13;27209;1218;3028345;-69
2021/10/02 08:39:11;;;;;;;7.50;2.90;;;;;;;13.57;34.90;100733.27;27256;1218;3051275;-70
2021/10/02 08:41:40;;;;;;;10.00;2.80;;;;;;;13.66;34.96;100731.39;27233;1217;3026104;-71
2021/10/02 08:44:14;;;;;;;6.90;3.60;;;;;;;13.74;34.57;100734.13;27231;1218;3027282;-71
2021/10/02 08:46:46;;;;;;;9.70;3.00;;;;;;;13.83;34.82;100734.34;27214;1218;3052605;-68
2021/10/02 08:49:35;;;;;;;5.40;2.60;;;;;;;13.98;34.86;100730.02;27246;1218;3050819;-69
2021/10/02 08:52:04;;;;;;;7.80;2.30;;;;;;;14.11;33.96;100728.59;27223;1218;3029478;-68
2021/10/02 08:54:38;;;;;;;5.20;2.60;;;;;;;14.22;33.08;100723.95;27238;1218;3052741;-67
2021/10/02 08:57:27;;;;;;;8.20;2.90;;;;;;;14.31;32.73;100722.75;27229;1218;3051360;-71
2021/10/02 08:59:56;;;;;;;5.10;2.40;;;;;;;14.45;32.47;100721.90;27223;1218;3026170;-67
2021/10/02 09:02:25;;;;;;;6.10;2.20;;;;;;;14.54;32.31;100720.02;27259;1218;3052210;-69
2021/10/02 09:05:16;;;;;;;6.90;2.30;;;;;;;14.62;32.36;100718.70;27234;1218;3051310;-70
2021/10/02 09:07:48;;;;;;;9.90;1.90;;;;;;;14.69;32.01;100716.20;27230;1218;3026103;-72
2021/10/02 09:10:37;;;;;;;2.30;1.70;;;;;;;14.79;31.05;100714.22;27236;1218;3051464;-68
2021/10/02 09:13:07;;;;;;;6.60;2.50;;;;;;;14.80;31.37;100711.35;27218;1218;3026263;-69
2021/10/02 09:15:35;;;;;;;6.20;1.80;;;;;;;14.97;30.97;100707.33;27226;1218;3068519;-69
2021/10/02 09:18:24;;;;;;;6.30;2.10;;;;;;;15.04;30.41;100706.36;27212;1218;3052612;-69
2021/10/02 09:21:03;;;;;;;8.20;2.40;;;;;;;15.11;30.35;100703.84;27252;1218;3027122;-70
2021/10/02 09:23:52;;;;;;;5.50;2.50;;;;;;;15.15;30.20;100701.34;27233;1217;3054952;-69
2021/10/02 09:26:42;;;;;;;7.60;2.40;;;;;;;15.20;30.10;100699.98;27217;1218;3026846;-67
2021/10/02 09:29:14;;;;;;;5.90;2.80;;;;;;;15.35;30.29;100693.77;27225;1218;3050695;-70
2021/10/02 09:31:43;;;;;;;4.70;2.20;;;;;;;15.41;30.00;100692.01;27208;1218;3026771;-72
2021/10/02 09:34:23;;;;;;;6.50;2.50;;;;;;;15.49;30.00;100689.73;27223;1218;3026695;-70
2021/10/02 09:36:53;;;;;;;4.70;2.30;;;;;;;15.45;29.91;100687.87;27230;1218;3049348;-70
2021/10/02 09:39:41;;;;;;;8.80;2.90;;;;;;;15.56;30.12;100684.71;27240;1218;3026139;-68
2021/10/02 09:42:46;;;;;;;6.40;2.60;;;;;;;15.60;30.50;100681.66;27221;1218;3056064;-70
2021/10/02 09:45:17;;;;;;;8.60;2.90;;;;;;;15.61;30.15;100681.96;27174;1222;3049746;-66
2021/10/02 09:47:55;;;;;;;7.40;2.10;;;;;;;15.68;29.76;100678.84;27160;1222;3026031;-70
2021/10/02 09:50:26;;;;;;;8.10;2.30;;;;;;;15.80;29.85;100678.83;27189;1222;3050477;-69
2021/10/02 09:53:00;;;;;;;13.10;2.20;;;;;;;15.92;30.04;100674.91;27165;1221;3026228;-68
2021/10/02 09:55:37;;;;;;;4.80;2.00;;;;;;;16.00;29.65;100669.61;27157;1222;3048572;-67
2021/10/02 09:58:29;;;;;;;6.70;2.10;;;;;;;16.06;29.74;100669.20;27147;1222;3054906;-69
2021/10/02 10:01:01;;;;;;;6.40;2.20;;;;;;;16.17;30.09;100669.42;27075;1222;3055213;-69
2021/10/02 10:03:44;;;;;;;7.50;2.10;;;;;;;16.30;29.86;100667.67;27122;1222;3025961;-71
2021/10/02 10:06:17;;;;;;;7.80;2.30;;;;;;;16.40;29.52;100664.59;27159;1222;3050262;-66
2021/10/02 10:09:05;;;;;;;3.80;1.90;;;;;;;16.56;29.46;100662.42;27141;1222;3026065;-69
2021/10/02 10:11:47;;;;;;;3.40;2.00;;;;;;;16.68;28.84;100659.34;27172;1221;3054079;-69
2021/10/02 10:14:23;;;;;;;7.60;2.30;;;;;;;16.75;28.90;100656.36;27105;1223;3071064;-70
2021/10/02 10:17:14;;;;;;;3.50;1.80;;;;;;;16.84;28.85;100657.93;27107;1222;3051385;-65
2021/10/02 10:20:08;;;;;;;5.90;2.20;;;;;;;16.79;28.65;100647.98;27090;1222;3054219;-66
2021/10/02 10:24:54;;;;;;;4.20;2.00;;;;;;;16.87;28.68;100643.18;34349;1218;3026443;-69
2021/10/02 10:27:44;;;;;;;4.50;2.50;;;;;;;17.13;28.11;100647.44;27160;1218;3054347;-67
2021/10/02 10:30:14;;;;;;;4.90;2.40;;;;;;;17.37;27.64;100647.95;27236;1218;3054918;-68
2021/10/02 10:33:08;;;;;;;4.60;2.20;;;;;;;17.39;27.90;100645.49;27222;1218;3028281;-66
2021/10/02 10:35:44;;;;;;;7.20;2.00;;;;;;;17.39;27.63;100640.86;27250;1219;3054664;-67
2021/10/02 10:38:14;;;;;;;5.60;2.10;;;;;;;17.39;27.33;100641.58;27263;1221;3052463;-69
2021/10/02 10:40:43;;;;;;;7.80;1.70;;;;;;;17.51;27.67;100639.89;27203;1218;3026237;-69
2021/10/02 10:43:12;;;;;;;3.30;1.70;;;;;;;17.64;27.86;100632.23;27243;1210;3026813;-67
2021/10/02 10:45:41;;;;;;;3.70;1.70;;;;;;;17.67;27.89;100631.29;27232;1217;3051898;-68
2021/10/02 10:48:10;;;;;;;6.80;2.10;;;;;;;17.68;27.27;100629.42;27211;1217;3027750;-69
2021/10/02 10:51:01;;;;;;;3.60;2.00;;;;;;;17.73;26.68;100625.91;27220;1217;3054556;-71
2021/10/02 10:53:38;;;;;;;5.00;2.50;;;;;;;17.86;26.68;100627.45;27225;1218;3052158;-69
2021/10/02 10:56:08;;;;;;;6.90;2.30;;;;;;;17.82;26.56;100623.80;27244;1216;3056503;-70
2021/10/02 10:58:38;;;;;;;6.00;1.80;;;;;;;17.82;26.24;100623.27;27214;1216;3026190;-70
2021/10/02 11:01:09;;;;;;;3.70;2.00;;;;;;;17.74;26.89;100618.56;27251;1218;3025982;-67
2021/10/02 11:03:44;;;;;;;8.40;2.00;;;;;;;17.83;27.11;100621.07;27195;1216;3026959;-69
2021/10/02 11:06:18;;;;;;;4.60;2.20;;;;;;;17.92;27.27;100623.30;27285;1219;3071350;-70
2021/10/02 11:08:48;;;;;;;5.40;2.30;;;;;;;18.00;27.21;100617.05;27238;1218;3051987;-69
2021/10/02 11:11:17;;;;;;;6.60;2.20;;;;;;;18.05;27.43;100615.42;27260;1210;3025893;-67
2021/10/02 11:13:47;;;;;;;8.30;2.50;;;;;;;18.09;27.37;100612.48;27204;1216;3070681;-68
2021/10/02 11:16:40;;;;;;;3.80;2.50;;;;;;;18.14;27.53;100610.35;27225;1216;3027522;-66
2021/10/02 11:19:29;;;;;;;4.80;2.40;;;;;;;18.13;27.19;100613.47;27214;1216;3054101;-68
2021/10/02 11:23:07;;;;;;;5.70;2.70;;;;;;;18.19;27.32;100617.09;27219;1216;3052529;-71
2021/10/02 11:25:37;;;;;;;6.70;2.90;;;;;;;18.22;27.23;100606.04;27208;1216;3058861;-68
2021/10/02 11:28:25;;;;;;;7.80;2.60;;;;;;;18.31;27.06;100606.45;27207;1218;3025815;-70
2021/10/02 11:31:12;;;;;;;8.20;2.50;;;;;;;18.31;26.64;100602.52;27198;1216;3054916;-68
2021/10/02 11:33:44;;;;;;;7.20;3.80;;;;;;;18.37;26.82;100604.89;27286;1216;3055528;-67
2021/10/02 11:36:30;;;;;;;5.30;2.60;;;;;;;18.45;26.83;100608.19;27238;1216;3052189;-67
2021/10/02 11:39:11;;;;;;;;;;;;;;;18.56;26.88;100599.72;27255;1216;3052161;-69
2021/10/02 11:41:49;;;;;;;4.20;2.00;;;;;;;18.48;26.78;100600.56;27253;1216;3052512;-68
2021/10/02 11:44:35;;;;;;;9.40;2.60;;;;;;;18.54;26.85;100604.52;27197;1216;3068051;-69
2021/10/02 11:47:39;;;;;;;6.00;2.20;;;;;;;18.58;26.36;100605.31;27239;1216;3049022;-68
2021/10/02 11:50:08;;;;;;;5.40;2.60;;;;;;;18.76;26.38;100597.86;27195;1216;3052417;-70
2021/10/02 11:52:37;;;;;;;5.20;2.40;;;;;;;18.76;26.15;100594.67;27248;1216;3026405;-69
2021/10/02 11:55:40;;;;;;;11.40;3.10;;;;;;;18.91;26.19;100591.39;27227;1216;3026461;-66
2021/10/02 11:58:25;;;;;;;6.70;2.80;;;;;;;19.01;26.20;100588.02;27215;1216;3054906;-71
2021/10/02 12:01:00;;;;;;;5.50;2.00;;;;;;;19.07;25.75;100587.55;27241;1215;3026054;-68
2021/10/02 12:03:33;;;;;;;12.20;3.10;;;;;;;19.15;25.66;100585.48;27252;1216;3057484;-66
2021/10/02 12:06:03;;;;;;;4.40;2.70;;;;;;;19.15;25.88;100581.74;27280;1216;3048484;-69
2021/10/02 12:08:32;;;;;;;5.70;2.30;;;;;;;19.19;25.84;100581.09;27256;1216;3026487;-65
2021/10/02 12:11:12;;;;;;;8.00;2.80;;;;;;;19.22;26.09;100581.52;27226;1216;3052423;-68
2021/10/02 12:13:43;;;;;;;6.20;2.20;;;;;;;19.22;26.38;100580.80;27230;1216;3028625;-68
2021/10/02 12:16:33;;;;;;;9.50;2.60;;;;;;;19.28;26.07;100574.86;27237;1216;3052293;-67
2021/10/02 12:19:09;;;;;;;7.30;2.80;;;;;;;19.39;26.20;100573.33;27217;1209;3026491;-66
2021/10/02 12:22:03;;;;;;;8.70;2.90;;;;;;;19.40;26.01;100575.15;27260;1216;3053549;-67
2021/10/02 12:24:37;;;;;;;17.40;7.20;;;;;;;19.40;26.14;100571.98;27272;1216;3058868;-67
2021/10/02 12:27:15;;;;;;;8.90;3.40;;;;;;;19.45;26.44;100573.73;27235;1216;3049123;-68
2021/10/02 12:29:45;;;;;;;13.30;5.60;;;;;;;19.51;25.75;100569.32;27255;1216;3052852;-67
2021/10/02 12:32:21;;;;;;;7.40;3.50;;;;;;;19.57;25.69;100567.02;27205;1216;3026129;-68
2021/10/02 12:34:54;;;;;;;5.50;3.20;;;;;;;19.65;25.27;100564.79;27227;1216;3067858;-67
2021/10/02 12:37:34;;;;;;;11.40;4.50;;;;;;;19.84;24.91;100565.42;27221;1216;3049108;-67
2021/10/02 12:40:10;;;;;;;9.70;4.30;;;;;;;19.84;24.96;100564.00;27242;1216;3054305;-66